Time;durP1;ratioP1;P1;durP2;ratioP2;P2;SDS_P1;SDS_P2;PMS_P1;PMS_P2;Temp;Humidity;BMP_temperature;BMP_pressure;BME280_temperature;BME280_humidity;BME280_pressure;Samples;Min_cycle;Max_cycle;Signal;HPM_P1;HPM_P2
2022/10/16 08:39:46;;;;;;;8.03;6.60;;;22.40;67.40;;;;;;5167829;27;20544;-45
2022/10/16 08:42:29;;;;;;;7.83;7.03;;;23.20;70.00;;;;;;5151602;27;20198;-54
2022/10/16 08:49:56;;;;;;;10.80;7.83;;;24.20;64.20;;;;;;5167674;27;21102;-62
2022/10/16 08:52:28;;;;;;;8.83;7.53;;;23.60;64.80;;;;;;5151428;27;20199;-59
2022/10/16 08:54:57;;;;;;;8.40;6.50;;;22.90;65.90;;;;;;5151315;27;20198;-58
2022/10/16 08:57:26;;;;;;;8.40;7.50;;;22.40;67.30;;;;;;5151535;27;20194;-59
2022/10/16 09:00:00;;;;;;;10.67;7.10;;;22.10;68.50;;;;;;5151117;27;20202;-49
2022/10/16 09:02:34;;;;;;;14.50;7.30;;;22.40;68.60;;;;;;5151334;27;20194;-49
2022/10/16 09:05:23;;;;;;;8.87;7.57;;;22.20;69.30;;;;;;5151441;27;20573;-50
2022/10/16 09:08:00;;;;;;;11.93;7.70;;;22.10;69.50;;;;;;5149506;27;20285;-50
2022/10/16 09:10:45;;;;;;;8.67;7.10;;;22.00;70.00;;;;;;5151105;27;20384;-50
2022/10/16 09:13:22;;;;;;;10.00;8.27;;;22.00;70.20;;;;;;5146788;27;20200;-48
2022/10/16 09:15:56;;;;;;;13.60;8.93;;;21.90;70.40;;;;;;5139322;27;20210;-47
2022/10/16 09:18:30;;;;;;;11.13;8.20;;;21.90;70.80;;;;;;5130240;27;20238;-49
2022/10/16 09:21:08;;;;;;;11.40;8.30;;;21.90;70.80;;;;;;5130030;27;20206;-51
2022/10/16 09:23:37;;;;;;;10.77;8.47;;;21.90;70.80;;;;;;5135589;27;20203;-50
2022/10/16 09:26:10;;;;;;;17.00;8.53;;;21.90;71.20;;;;;;5130012;27;20202;-45
2022/10/16 09:28:38;;;;;;;9.37;8.37;;;21.90;70.90;;;;;;5130402;27;20555;-56
2022/10/16 09:31:11;;;;;;;10.40;7.73;;;21.90;70.70;;;;;;5140136;27;20204;-53
2022/10/16 09:33:42;;;;;;;11.67;8.40;;;21.80;70.60;;;;;;5149122;27;20203;-49
2022/10/16 09:38:37;;;;;;;10.57;8.70;;;22.30;74.00;;;;;;5165450;27;20896;-66
2022/10/16 09:41:17;;;;;;;10.23;8.27;;;22.20;69.10;;;;;;5151381;27;20220;-61
2022/10/16 09:43:52;;;;;;;12.30;9.63;;;22.10;69.40;;;;;;5151610;27;20232;-62
2022/10/16 09:46:28;;;;;;;10.20;9.13;;;22.20;69.50;;;;;;5151562;27;20716;-62
2022/10/16 09:48:58;;;;;;;10.90;8.70;;;22.10;69.60;;;;;;5151237;27;20299;-63
2022/10/16 14:21:45;;;;;;;9.10;6.47;;;24.60;68.10;;;;;;5167898;27;20547;-53
2022/10/16 14:24:14;;;;;;;13.40;10.20;;;24.80;67.70;;;;;;5151876;27;20596;-63
2022/10/16 14:26:44;;;;;;;9.80;5.67;;;23.80;56.10;;;;;;5151979;27;20190;-64
2022/10/16 14:29:20;;;;;;;4.67;4.27;;;22.30;58.20;;;;;;5151770;27;20202;-63
2022/10/16 14:31:57;;;;;;;8.13;7.20;;;21.50;61.50;;;;;;5152059;27;20199;-64
2022/10/16 14:34:27;;;;;;;6.10;4.43;;;20.90;64.00;;;;;;5151979;27;20204;-64
2022/10/16 14:37:00;;;;;;;5.63;4.20;;;20.40;64.80;;;;;;5151527;27;20203;-63
2022/10/16 14:39:29;;;;;;;8.53;7.43;;;20.10;66.20;;;;;;5143816;27;20197;-63
2022/10/16 14:41:59;;;;;;;6.90;6.30;;;19.90;67.40;;;;;;5141334;27;20223;-64
2022/10/16 14:44:32;;;;;;;6.23;5.63;;;19.70;68.10;;;;;;5151408;27;20224;-63
2022/10/16 14:47:09;;;;;;;6.33;5.33;;;19.60;69.10;;;;;;5151083;27;20202;-65
2022/10/16 14:49:38;;;;;;;10.70;9.50;;;19.50;69.40;;;;;;5146480;27;20194;-63
2022/10/16 14:52:11;;;;;;;7.50;6.70;;;19.40;71.00;;;;;;5135614;27;20612;-64
2022/10/16 14:54:39;;;;;;;5.67;5.13;;;19.20;71.20;;;;;;5148441;27;20661;-63
2022/10/16 14:57:18;;;;;;;5.27;4.77;;;19.20;71.20;;;;;;5151356;27;20228;-63
2022/10/16 14:59:48;;;;;;;7.00;4.87;;;19.10;71.30;;;;;;5150646;27;20193;-63
2022/10/16 15:02:25;;;;;;;9.80;8.80;;;19.00;71.70;;;;;;5151064;27;20197;-67
2022/10/16 15:04:54;;;;;;;7.60;6.83;;;19.00;72.30;;;;;;5151069;27;20288;-72
2022/10/16 15:07:25;;;;;;;6.10;5.50;;;18.90;72.30;;;;;;5150696;27;20610;-64
2022/10/16 15:09:53;;;;;;;13.60;11.10;;;18.90;72.40;;;;;;5150298;27;20200;-64
2022/10/16 15:12:22;;;;;;;11.93;8.97;;;18.80;72.60;;;;;;5150455;27;20200;-65
2022/10/16 15:14:50;;;;;;;6.30;5.70;;;18.80;72.40;;;;;;5150466;27;20665;-68
2022/10/16 15:17:18;;;;;;;6.10;5.40;;;18.80;72.30;;;;;;5150685;27;20196;-70
2022/10/16 15:19:48;;;;;;;7.30;6.57;;;18.70;72.30;;;;;;5150038;27;20320;-65
2022/10/16 15:22:16;;;;;;;13.80;11.40;;;18.60;72.80;;;;;;5143632;27;20248;-67
2022/10/16 15:24:46;;;;;;;12.77;7.93;;;18.60;73.50;;;;;;5145059;27;20303;-64
2022/10/16 15:27:16;;;;;;;7.60;6.80;;;18.60;73.60;;;;;;5150654;27;20203;-64
2022/10/16 15:29:45;;;;;;;12.87;11.20;;;18.50;73.70;;;;;;5150336;27;20210;-73
2022/10/16 15:32:13;;;;;;;8.20;6.37;;;18.40;74.10;;;;;;5141826;27;20236;-68
2022/10/16 15:34:42;;;;;;;9.50;8.43;;;18.40;74.40;;;;;;5136041;27;20196;-65
2022/10/16 15:37:11;;;;;;;7.43;6.67;;;18.30;75.00;;;;;;5136517;27;20206;-66
2022/10/16 15:39:40;;;;;;;8.40;7.60;;;18.30;75.60;;;;;;5135957;27;20563;-62
2022/10/16 15:42:10;;;;;;;7.60;5.60;;;18.20;75.60;;;;;;5136378;27;20252;-63
2022/10/16 15:44:38;;;;;;;7.40;6.53;;;18.10;75.80;;;;;;5136115;27;20271;-70
2022/10/16 15:47:06;;;;;;;7.60;6.47;;;18.00;76.00;;;;;;5136148;27;20552;-67
2022/10/16 15:49:35;;;;;;;7.00;6.33;;;18.00;76.50;;;;;;5135956;27;20196;-69
2022/10/16 15:52:04;;;;;;;7.50;6.70;;;18.00;76.80;;;;;;5136075;27;20240;-63
2022/10/16 15:54:33;;;;;;;7.10;6.40;;;17.90;77.20;;;;;;5136016;27;20225;-66
2022/10/16 15:57:01;;;;;;;8.37;7.33;;;17.80;77.60;;;;;;5136002;27;20199;-65
2022/10/16 15:59:31;;;;;;;8.83;7.30;;;17.80;78.50;;;;;;5135680;27;20563;-69
2022/10/16 16:01:59;;;;;;;12.97;10.07;;;17.70;78.80;;;;;;5135485;27;20192;-65
2022/10/16 16:04:30;;;;;;;12.77;10.90;;;17.70;79.10;;;;;;5135891;27;20198;-70
2022/10/16 16:07:11;;;;;;;10.47;8.77;;;17.60;79.60;;;;;;5135858;27;20200;-68
2022/10/16 16:09:39;;;;;;;16.77;12.77;;;17.50;79.50;;;;;;5135423;27;20657;-68
2022/10/16 16:12:08;;;;;;;14.30;9.77;;;17.50;79.90;;;;;;5135700;27;20219;-64
2022/10/16 16:14:37;;;;;;;12.10;10.63;;;17.40;80.10;;;;;;5135567;27;20221;-64
2022/10/16 16:17:06;;;;;;;13.57;9.40;;;17.40;80.30;;;;;;5135739;27;20201;-63
2022/10/16 16:19:34;;;;;;;7.87;6.80;;;17.40;80.40;;;;;;5135326;27;20538;-63
2022/10/16 16:22:03;;;;;;;7.83;7.03;;;17.30;80.30;;;;;;5122029;27;20732;-63
2022/10/16 16:24:34;;;;;;;8.37;7.53;;;17.30;80.00;;;;;;5135477;27;20542;-68
2022/10/16 16:27:02;;;;;;;12.90;9.13;;;17.20;80.20;;;;;;5135283;27;20618;-66
2022/10/16 16:29:37;;;;;;;8.70;7.80;;;17.20;80.70;;;;;;5135121;27;20244;-64
2022/10/16 16:32:05;;;;;;;8.10;6.83;;;17.10;80.80;;;;;;5134813;27;20592;-68
2022/10/16 16:34:34;;;;;;;9.27;7.53;;;17.10;80.60;;;;;;5135184;27;20198;-63
2022/10/16 16:37:02;;;;;;;14.20;8.10;;;17.10;80.30;;;;;;5135020;27;20759;-65
2022/10/16 16:39:31;;;;;;;8.03;7.23;;;17.00;80.40;;;;;;5134894;27;20193;-69
2022/10/16 16:41:59;;;;;;;10.77;7.27;;;17.00;81.20;;;;;;5134971;27;20205;-63
2022/10/16 16:44:27;;;;;;;8.10;6.73;;;16.90;81.50;;;;;;5134051;27;20198;-72
2022/10/16 16:46:58;;;;;;;7.90;7.10;;;16.80;81.00;;;;;;5135143;27;20558;-63
2022/10/16 16:49:26;;;;;;;8.07;7.27;;;16.90;81.60;;;;;;5134577;27;20227;-69
2022/10/16 16:51:54;;;;;;;10.30;8.20;;;16.80;82.10;;;;;;5122700;27;20233;-68
2022/10/16 16:54:23;;;;;;;9.10;7.67;;;16.70;82.00;;;;;;5134115;27;20192;-64
2022/10/16 16:56:51;;;;;;;8.13;7.43;;;16.70;82.00;;;;;;5127627;27;20222;-67
2022/10/16 16:59:21;;;;;;;8.53;7.63;;;16.60;81.80;;;;;;5123505;27;20205;-64
2022/10/16 17:01:51;;;;;;;9.40;7.93;;;16.60;82.00;;;;;;5126916;27;20677;-64
2022/10/16 17:04:25;;;;;;;10.77;7.50;;;16.60;82.00;;;;;;5135500;27;20203;-63
2022/10/16 17:06:54;;;;;;;8.93;7.73;;;16.60;81.80;;;;;;5131632;27;20203;-70
2022/10/16 17:09:23;;;;;;;8.93;8.03;;;16.60;81.90;;;;;;5123772;27;20196;-63
2022/10/16 17:11:51;;;;;;;8.00;7.20;;;16.50;81.80;;;;;;5125206;27;20223;-63
2022/10/16 17:14:19;;;;;;;8.50;6.87;;;16.50;81.50;;;;;;5132902;27;20198;-64
2022/10/16 17:16:48;;;;;;;9.37;7.43;;;16.50;81.20;;;;;;5123788;27;20216;-67
2022/10/16 17:19:19;;;;;;;6.57;5.97;;;16.50;81.10;;;;;;5121108;27;20212;-66
2022/10/16 17:21:51;;;;;;;6.70;5.90;;;16.50;80.90;;;;;;5130226;27;20195;-63
2022/10/16 17:24:20;;;;;;;11.60;6.77;;;16.50;80.80;;;;;;5122995;27;20256;-63
2022/10/16 17:26:48;;;;;;;9.60;6.50;;;16.40;80.80;;;;;;5121076;27;20293;-65
2022/10/16 17:29:18;;;;;;;6.37;5.77;;;16.40;81.00;;;;;;5117559;27;20704;-65
2022/10/16 17:31:48;;;;;;;11.40;6.63;;;16.40;81.10;;;;;;5125379;27;20730;-68
2022/10/16 17:34:17;;;;;;;7.27;5.43;;;16.40;81.20;;;;;;5134583;27;20281;-64
2022/10/16 17:36:46;;;;;;;7.87;5.53;;;16.40;81.20;;;;;;5133987;27;20200;-72
2022/10/16 17:39:18;;;;;;;6.77;6.07;;;16.30;81.20;;;;;;5133434;27;20656;-65
2022/10/16 17:41:47;;;;;;;9.07;6.20;;;16.30;81.50;;;;;;5133623;27;20200;-67
2022/10/16 17:44:19;;;;;;;7.13;6.20;;;16.30;81.60;;;;;;5132903;27;20550;-66
2022/10/16 17:46:48;;;;;;;6.50;5.80;;;16.20;81.80;;;;;;5134439;27;20226;-64
2022/10/16 17:49:17;;;;;;;8.83;6.20;;;16.20;82.00;;;;;;5134112;27;20190;-64
2022/10/16 17:51:46;;;;;;;11.13;6.23;;;16.20;82.20;;;;;;5134178;27;20290;-65
2022/10/16 17:54:16;;;;;;;7.20;6.50;;;16.20;82.50;;;;;;5133314;27;20698;-65
2022/10/16 17:56:44;;;;;;;11.47;7.10;;;16.20;82.70;;;;;;5134150;27;20250;-65
2022/10/16 17:59:12;;;;;;;42.63;33.23;;;16.20;83.00;;;;;;5134137;27;20262;-65
2022/10/16 18:01:44;;;;;;;8.63;7.33;;;16.10;84.10;;;;;;5134281;27;20199;-67
2022/10/16 18:04:15;;;;;;;7.27;6.40;;;16.10;83.80;;;;;;5134117;27;20198;-65
2022/10/16 18:06:46;;;;;;;8.17;6.80;;;16.10;84.00;;;;;;5134001;27;20190;-65
2022/10/16 18:09:19;;;;;;;8.80;7.27;;;16.10;84.30;;;;;;5132998;27;20567;-64
2022/10/16 18:11:51;;;;;;;9.30;7.73;;;16.10;84.50;;;;;;5134232;27;20271;-65
2022/10/16 18:14:19;;;;;;;7.23;6.50;;;16.10;84.90;;;;;;5133555;27;20236;-65
2022/10/16 18:16:48;;;;;;;8.20;6.40;;;16.00;85.00;;;;;;5133947;27;20194;-65
2022/10/16 18:19:17;;;;;;;7.03;6.33;;;16.00;85.30;;;;;;5133546;28;20196;-64
2022/10/16 18:21:45;;;;;;;6.80;6.10;;;16.00;85.50;;;;;;5133903;28;20202;-65
2022/10/16 18:24:14;;;;;;;7.37;6.00;;;16.00;86.00;;;;;;5132918;28;20310;-65
2022/10/16 18:26:44;;;;;;;12.33;6.03;;;15.90;86.20;;;;;;5132696;28;20233;-65
2022/10/16 18:29:13;;;;;;;6.27;5.43;;;15.90;86.30;;;;;;5132640;28;20666;-65
2022/10/16 18:31:42;;;;;;;6.47;5.87;;;15.90;86.50;;;;;;5132843;27;20190;-68
2022/10/16 18:34:11;;;;;;;6.57;5.70;;;16.00;86.70;;;;;;5132854;27;20206;-64
2022/10/16 18:36:41;;;;;;;6.23;5.63;;;15.90;87.00;;;;;;5132926;27;20198;-64
2022/10/16 18:39:10;;;;;;;7.07;5.97;;;15.90;87.40;;;;;;5132055;28;20194;-63
2022/10/16 18:41:40;;;;;;;6.43;5.83;;;15.90;87.60;;;;;;5132974;28;20206;-64
2022/10/16 18:44:10;;;;;;;6.33;5.73;;;15.90;87.70;;;;;;5128374;27;20201;-71
2022/10/16 18:46:39;;;;;;;7.13;5.47;;;15.90;87.90;;;;;;5122962;27;20281;-72
2022/10/16 18:49:07;;;;;;;6.73;6.03;;;15.80;88.00;;;;;;5117576;27;20285;-65
2022/10/16 18:51:39;;;;;;;9.43;5.90;;;15.90;88.30;;;;;;5111909;28;20221;-67
2022/10/16 18:54:10;;;;;;;7.27;5.87;;;15.90;88.60;;;;;;5127459;28;20203;-65
2022/10/16 18:56:39;;;;;;;5.53;5.03;;;15.80;88.70;;;;;;5115049;27;20198;-64
2022/10/16 18:59:10;;;;;;;5.87;5.37;;;15.80;88.90;;;;;;5123402;27;20257;-65
2022/10/16 19:01:38;;;;;;;5.93;5.37;;;15.80;89.00;;;;;;5122794;27;20186;-65
2022/10/16 19:04:09;;;;;;;6.03;5.43;;;15.80;89.10;;;;;;5132752;28;20201;-64
2022/10/16 19:06:40;;;;;;;6.33;5.13;;;15.80;89.30;;;;;;5132882;27;20206;-63
2022/10/16 19:09:08;;;;;;;6.13;5.53;;;15.80;89.50;;;;;;5128062;27;20213;-65
2022/10/16 19:11:37;;;;;;;5.90;5.27;;;15.80;89.80;;;;;;5123240;27;20189;-64
2022/10/16 19:14:11;;;;;;;5.87;4.70;;;15.80;89.80;;;;;;5118369;27;20875;-65
2022/10/16 19:16:41;;;;;;;7.67;5.30;;;15.70;90.00;;;;;;5131778;27;20202;-67
2022/10/16 19:19:12;;;;;;;7.17;5.10;;;15.70;90.00;;;;;;5117565;27;20197;-64
2022/10/16 19:21:42;;;;;;;6.70;4.90;;;15.70;90.00;;;;;;5115155;28;20226;-65
2022/10/16 19:24:13;;;;;;;6.20;4.30;;;15.70;90.10;;;;;;5115674;27;20199;-63
2022/10/16 19:26:41;;;;;;;6.03;4.60;;;15.80;90.10;;;;;;5115615;28;20210;-62
2022/10/16 19:29:11;;;;;;;4.70;4.30;;;15.80;90.10;;;;;;5115297;28;20199;-65
2022/10/16 19:31:40;;;;;;;5.67;4.27;;;15.80;90.10;;;;;;5115439;28;20206;-64
2022/10/16 19:34:10;;;;;;;7.83;5.83;;;15.80;90.20;;;;;;5115567;28;20225;-63
2022/10/16 19:36:40;;;;;;;6.17;5.17;;;15.80;90.30;;;;;;5114939;28;20198;-63
2022/10/16 19:39:12;;;;;;;4.97;4.47;;;15.70;90.50;;;;;;5115208;28;20191;-64
2022/10/16 19:41:40;;;;;;;5.90;4.53;;;15.70;90.30;;;;;;5115140;28;20313;-63
2022/10/16 19:44:11;;;;;;;5.07;4.57;;;15.80;90.60;;;;;;5117967;27;20197;-63
2022/10/16 19:46:40;;;;;;;5.37;4.67;;;15.70;90.30;;;;;;5135893;27;20198;-63
2022/10/16 19:49:10;;;;;;;5.17;4.37;;;15.70;90.40;;;;;;5135902;27;20225;-65
2022/10/16 19:51:40;;;;;;;7.90;5.10;;;15.70;90.50;;;;;;5135240;27;20198;-65
2022/10/16 19:54:12;;;;;;;5.20;4.70;;;15.70;90.60;;;;;;5135459;27;20654;-62
2022/10/16 19:56:41;;;;;;;5.37;4.33;;;15.70;90.70;;;;;;5135439;27;20202;-71
2022/10/16 19:59:15;;;;;;;5.37;4.20;;;15.70;90.80;;;;;;5135282;27;20565;-65
2022/10/16 20:01:43;;;;;;;5.37;4.50;;;15.60;90.90;;;;;;5135585;27;20291;-64
2022/10/16 20:04:13;;;;;;;5.00;4.50;;;15.60;90.90;;;;;;5135214;27;20282;-63
2022/10/16 20:06:41;;;;;;;6.00;5.23;;;15.60;91.00;;;;;;5135250;27;20413;-63
2022/10/16 20:09:09;;;;;;;5.43;4.93;;;15.60;91.10;;;;;;5135027;27;20231;-65
2022/10/16 20:11:38;;;;;;;5.70;5.20;;;15.60;91.10;;;;;;5135178;27;20192;-63
2022/10/16 20:14:07;;;;;;;6.33;4.53;;;15.60;91.20;;;;;;5135029;27;20324;-64
2022/10/16 20:16:39;;;;;;;4.97;4.53;;;15.60;91.30;;;;;;5135248;27;20237;-65
2022/10/16 20:19:07;;;;;;;7.53;5.10;;;15.60;91.30;;;;;;5134433;27;20212;-65
2022/10/16 20:21:35;;;;;;;5.23;4.67;;;15.60;91.40;;;;;;5134752;27;20316;-62
2022/10/16 20:24:05;;;;;;;6.23;4.97;;;15.50;91.50;;;;;;5134608;27;20201;-63
2022/10/16 20:26:34;;;;;;;4.50;4.10;;;15.50;91.50;;;;;;5134641;27;20197;-66
2022/10/16 20:29:04;;;;;;;5.10;4.53;;;15.50;91.60;;;;;;5134499;27;20606;-65
2022/10/16 20:31:34;;;;;;;9.03;4.90;;;15.50;91.70;;;;;;5135065;27;20552;-64
2022/10/16 20:34:07;;;;;;;5.47;4.93;;;15.50;91.70;;;;;;5134320;27;20584;-64
2022/10/16 20:36:36;;;;;;;5.77;5.17;;;15.50;91.70;;;;;;5135038;27;20207;-68
2022/10/16 20:39:06;;;;;;;5.57;5.07;;;15.50;91.80;;;;;;5119442;27;20212;-62
2022/10/16 20:41:35;;;;;;;5.37;4.87;;;15.50;91.90;;;;;;5114114;28;20205;-65
2022/10/16 20:44:05;;;;;;;5.30;4.80;;;15.40;92.00;;;;;;5114129;28;20192;-63
2022/10/16 20:46:33;;;;;;;7.50;6.10;;;15.40;92.10;;;;;;5113977;28;20536;-66
2022/10/16 20:49:03;;;;;;;6.00;5.17;;;15.40;92.10;;;;;;5113172;28;20606;-70
2022/10/16 20:51:38;;;;;;;4.90;4.50;;;15.40;92.10;;;;;;5113961;28;20226;-63
2022/10/16 20:54:07;;;;;;;7.73;4.77;;;15.40;92.10;;;;;;5113768;28;20225;-64
2022/10/16 20:56:36;;;;;;;4.83;4.43;;;15.40;92.10;;;;;;5112314;28;20553;-65
2022/10/16 20:59:05;;;;;;;4.80;4.40;;;15.40;92.20;;;;;;5113381;28;20694;-72
2022/10/16 21:01:35;;;;;;;5.17;4.07;;;15.40;92.20;;;;;;5134036;27;20564;-64
2022/10/16 21:04:06;;;;;;;4.47;4.07;;;15.40;92.20;;;;;;5133844;27;20594;-63
2022/10/16 21:06:38;;;;;;;4.13;3.70;;;15.40;92.20;;;;;;5129565;27;20214;-64
2022/10/16 21:09:06;;;;;;;4.70;4.30;;;15.40;92.10;;;;;;5124688;27;20212;-63
2022/10/16 21:11:37;;;;;;;5.40;4.03;;;15.50;92.10;;;;;;5133822;27;20197;-66
2022/10/16 21:14:08;;;;;;;4.73;3.93;;;15.50;92.10;;;;;;5133851;27;20251;-63
2022/10/16 21:16:37;;;;;;;5.00;4.03;;;15.50;92.10;;;;;;5133948;27;20195;-64
2022/10/16 21:19:07;;;;;;;7.53;6.77;;;15.40;92.10;;;;;;5133305;27;20198;-63
2022/10/16 21:21:36;;;;;;;11.37;9.73;;;15.40;92.20;;;;;;5133566;27;20335;-69
2022/10/16 21:24:06;;;;;;;6.07;5.10;;;15.40;92.20;;;;;;5133802;27;20256;-62
2022/10/16 21:26:35;;;;;;;5.90;5.30;;;15.30;92.30;;;;;;5133552;27;20201;-63
2022/10/16 21:29:05;;;;;;;5.10;4.40;;;15.30;92.30;;;;;;5128633;27;20627;-62
2022/10/16 21:31:34;;;;;;;7.00;5.40;;;15.30;92.40;;;;;;5124149;27;20198;-63
2022/10/16 21:34:03;;;;;;;7.87;4.80;;;15.30;92.40;;;;;;5133691;27;20230;-63
2022/10/16 21:36:35;;;;;;;5.60;4.87;;;15.30;92.40;;;;;;5133320;27;20571;-64
2022/10/16 21:39:05;;;;;;;7.67;4.77;;;15.30;92.50;;;;;;5133239;27;20208;-63
2022/10/16 21:41:36;;;;;;;5.57;4.87;;;15.30;92.50;;;;;;5133150;27;20231;-64
2022/10/16 21:44:05;;;;;;;7.70;4.87;;;15.30;92.50;;;;;;5133594;27;20201;-65
2022/10/16 21:46:36;;;;;;;4.93;4.40;;;15.30;92.50;;;;;;5133027;27;20219;-63
